Terminal Aerodrome Forecast
Issued by NWS

Home | Current Version | Previous Version | Text Only | Print | Product List | Glossary Off
Versions: 1 2 3 4 5 6 7 8 9 10 11 12 13 14 15 16 17 18 19 20 21 22 23 24 25 26 27 28 29 30 31 32 33 34 35 36 37 38 39 40 41 42 43 44 45 46 47 48 49 50

485
FTUS43 KGRB 252145 AAB
TAFRHI
TAF AMD
KRHI 252145Z 2522/2618 11010G22KT 6SM -SHRA BR SCT045 BKN100
      TEMPO 2522/2602 2SM +TSRA BKN020 OVC045CB
     FM260500 15005KT 1SM BR BKN004 BKN010
     FM261500 21007KT P6SM BKN015=

USA.gov is the U.S. government's official web portal to all federal, state and local government web resources and services.